createdAt,value
2023-04-05T00:01:20.305Z,-1.01
2023-04-05T00:03:48.813Z,-0.96
2023-04-05T00:06:17.330Z,-0.91
2023-04-05T00:08:50.356Z,-0.86
2023-04-05T00:11:18.876Z,-0.83
2023-04-05T00:13:47.380Z,-0.78
2023-04-05T00:16:17.800Z,-0.76
2023-04-05T00:18:51.544Z,-0.73
2023-04-05T00:21:24.606Z,-0.69
2023-04-05T00:23:57.163Z,-0.66
2023-04-05T00:26:26.165Z,-0.63
2023-04-05T00:28:54.513Z,-0.61
2023-04-05T00:31:22.943Z,-0.58
2023-04-05T00:33:51.905Z,-0.57
2023-04-05T00:36:21.116Z,-0.56
2023-04-05T00:38:49.869Z,-0.56
2023-04-05T00:41:18.471Z,-0.57
2023-04-05T00:43:47.282Z,-0.57
2023-04-05T00:46:16.950Z,-0.60
2023-04-05T00:48:45.601Z,-0.63
2023-04-05T00:51:13.972Z,-0.65
2023-04-05T00:53:43.147Z,-0.69
2023-04-05T00:56:13.944Z,-0.72
2023-04-05T00:58:42.641Z,-0.74
2023-04-05T01:01:20.595Z,-0.76
2023-04-05T01:04:11.424Z,-0.78
2023-04-05T01:07:07.639Z,-0.81
2023-04-05T01:09:55.944Z,-0.84
2023-04-05T01:12:28.397Z,-0.87
2023-04-05T01:14:56.781Z,-0.88
2023-04-05T01:17:36.797Z,-0.91
2023-04-05T01:20:13.005Z,-0.92
2023-04-05T01:23:06.599Z,-0.94
2023-04-05T01:26:11.320Z,-0.97
2023-04-05T01:29:08.071Z,-1.00
2023-04-05T01:32:18.370Z,-1.04
2023-04-05T01:35:17.068Z,-1.07
2023-04-05T01:37:51.008Z,-1.10
2023-04-05T01:40:19.964Z,-1.14
2023-04-05T01:42:48.394Z,-1.17
2023-04-05T01:45:16.801Z,-1.20
2023-04-05T01:47:45.270Z,-1.23
2023-04-05T01:50:13.630Z,-1.27
2023-04-05T01:52:41.944Z,-1.31
2023-04-05T01:55:10.365Z,-1.35
2023-04-05T01:57:39.166Z,-1.37
2023-04-05T02:00:08.706Z,-1.40
2023-04-05T02:02:37.154Z,-1.43
2023-04-05T02:05:06.107Z,-1.45
2023-04-05T02:07:34.684Z,-1.48
2023-04-05T02:10:03.388Z,-1.51
2023-04-05T02:12:31.922Z,-1.53
2023-04-05T02:15:00.925Z,-1.57
2023-04-05T02:17:34.156Z,-1.59
2023-04-05T02:20:04.594Z,-1.61
2023-04-05T02:22:32.917Z,-1.62
2023-04-05T02:25:01.712Z,-1.64
2023-04-05T02:27:30.766Z,-1.65
2023-04-05T02:29:59.101Z,-1.68
2023-04-05T02:32:27.617Z,-1.68
2023-04-05T02:34:56.264Z,-1.68
2023-04-05T02:37:26.383Z,-1.69
2023-04-05T02:39:54.791Z,-1.69
2023-04-05T02:42:23.130Z,-1.70
2023-04-05T02:44:52.644Z,-1.71
2023-04-05T02:47:21.741Z,-1.72
2023-04-05T02:49:50.364Z,-1.74
2023-04-05T02:52:18.732Z,-1.77
2023-04-05T02:54:47.080Z,-1.79
2023-04-05T02:57:16.345Z,-1.81
2023-04-05T02:59:45.293Z,-1.81
2023-04-05T03:02:13.652Z,-1.83
2023-04-05T03:04:44.954Z,-1.85
2023-04-05T03:07:18.695Z,-1.88
2023-04-05T03:09:47.549Z,-1.92
2023-04-05T03:12:15.956Z,-1.94
2023-04-05T03:14:46.107Z,-1.97
2023-04-05T03:17:14.566Z,-1.98
2023-04-05T03:19:42.913Z,-1.99
2023-04-05T03:22:11.327Z,-2.00
2023-04-05T03:24:39.701Z,-2.02
2023-04-05T03:27:08.127Z,-2.04
2023-04-05T03:29:36.438Z,-2.04
2023-04-05T03:32:05.273Z,-2.05
2023-04-05T03:34:33.576Z,-2.06
2023-04-05T03:37:01.878Z,-2.07
2023-04-05T03:39:30.303Z,-2.07
2023-04-05T03:41:58.801Z,-2.08
2023-04-05T03:44:27.216Z,-2.07
2023-04-05T03:46:55.598Z,-2.06
2023-04-05T03:49:25.106Z,-2.05
2023-04-05T03:51:53.430Z,-2.03
2023-04-05T03:54:22.006Z,-2.01
2023-04-05T03:56:50.600Z,-1.99
2023-04-05T03:59:19.051Z,-1.97
2023-04-05T04:01:48.192Z,-1.93
2023-04-05T04:04:16.543Z,-1.90
2023-04-05T04:06:44.880Z,-1.88
2023-04-05T04:09:13.181Z,-1.89
2023-04-05T04:11:41.584Z,-1.90
2023-04-05T04:14:09.863Z,-1.91
2023-04-05T04:16:38.212Z,-1.92
2023-04-05T04:19:06.518Z,-1.94
2023-04-05T04:21:35.793Z,-1.96
2023-04-05T04:24:04.615Z,-1.97
2023-04-05T04:26:37.519Z,-2.00
2023-04-05T04:29:06.856Z,-2.03
2023-04-05T04:31:35.260Z,-2.04
2023-04-05T04:34:05.576Z,-2.05
2023-04-05T04:36:37.019Z,-2.06
2023-04-05T04:39:08.103Z,-2.06
2023-04-05T04:41:38.277Z,-2.04
2023-04-05T04:44:06.638Z,-2.01
2023-04-05T04:46:42.694Z,-1.99
2023-04-05T04:49:11.195Z,-1.95
2023-04-05T04:51:39.737Z,-1.92
2023-04-05T04:54:08.061Z,-1.88
2023-04-05T04:56:36.710Z,-1.85
2023-04-05T04:59:05.052Z,-1.82
2023-04-05T05:01:34.280Z,-1.78
2023-04-05T05:04:04.296Z,-1.75
2023-04-05T05:06:32.705Z,-1.69
2023-04-05T05:09:01.387Z,-1.63
2023-04-05T05:11:29.762Z,-1.57
2023-04-05T05:13:59.142Z,-1.52
2023-04-05T05:16:28.221Z,-1.46
2023-04-05T05:18:56.604Z,-1.41
2023-04-05T05:21:25.128Z,-1.37
2023-04-05T05:23:53.473Z,-1.32
2023-04-05T05:26:21.741Z,-1.29
2023-04-05T05:28:50.201Z,-1.26
2023-04-05T05:31:19.497Z,-1.23
2023-04-05T05:33:50.080Z,-1.19
2023-04-05T05:36:19.991Z,-1.14
2023-04-05T05:38:49.125Z,-1.07
2023-04-05T05:41:17.532Z,-1.00
2023-04-05T05:43:46.016Z,-0.94
2023-04-05T05:46:14.702Z,-0.89
2023-04-05T05:48:43.081Z,-0.83
2023-04-05T05:51:11.653Z,-0.75
2023-04-05T05:53:40.481Z,-0.64
2023-04-05T05:56:08.816Z,-0.53
2023-04-05T05:58:39.844Z,-0.40
2023-04-05T06:01:08.755Z,-0.26
2023-04-05T06:03:37.449Z,-0.12
2023-04-05T06:06:08.472Z,0.00
2023-04-05T06:08:38.300Z,0.11
2023-04-05T06:11:06.989Z,0.21
2023-04-05T06:13:35.444Z,0.31
2023-04-05T06:18:42.192Z,0.54
2023-04-05T06:21:12.403Z,0.64
2023-04-05T06:23:52.432Z,0.74
2023-04-05T06:26:31.436Z,0.84
2023-04-05T06:29:21.247Z,0.92
2023-04-05T06:31:49.968Z,0.99
2023-04-05T06:34:26.948Z,1.05
2023-04-05T06:37:12.655Z,1.13
2023-04-05T06:39:44.709Z,1.22
2023-04-05T06:42:13.186Z,1.28
2023-04-05T06:44:48.732Z,1.39
2023-04-05T06:47:19.878Z,1.48
2023-04-05T06:50:23.356Z,1.56
2023-04-05T06:52:51.940Z,1.68
2023-04-05T06:55:20.645Z,1.74
2023-04-05T06:57:52.958Z,1.83
2023-04-05T07:00:21.811Z,1.93
2023-04-05T07:04:19.923Z,2.11
2023-04-05T07:06:48.307Z,2.21
2023-04-05T07:09:17.161Z,2.32
2023-04-05T07:11:45.687Z,2.46
2023-04-05T07:14:14.220Z,2.60
2023-04-05T07:16:42.704Z,2.78
2023-04-05T07:19:11.393Z,2.96
2023-04-05T07:21:39.917Z,3.14
2023-04-05T07:24:08.905Z,3.26
2023-04-05T07:26:37.826Z,3.39
2023-04-05T07:29:10.059Z,3.51
2023-04-05T07:31:40.016Z,3.65
2023-04-05T07:34:08.464Z,3.78
2023-04-05T07:36:37.361Z,3.90
2023-04-05T07:39:05.917Z,4.01
2023-04-05T07:41:37.783Z,4.08
2023-04-05T07:44:06.636Z,4.14
2023-04-05T07:46:36.381Z,4.16
2023-04-05T07:49:04.902Z,4.19
2023-04-05T07:51:41.209Z,4.19
2023-04-05T07:54:10.178Z,4.19
2023-04-05T07:56:38.574Z,4.19
2023-04-05T07:59:06.965Z,4.19
2023-04-05T08:01:35.406Z,4.19
2023-04-05T08:04:03.866Z,4.21
2023-04-05T08:06:32.249Z,4.26
2023-04-05T08:09:00.587Z,4.34
2023-04-05T08:11:28.936Z,4.43
2023-04-05T08:13:57.882Z,4.51
2023-04-05T08:19:40.979Z,4.74
2023-04-05T08:22:30.440Z,4.87
2023-04-05T08:25:01.190Z,5.02
2023-04-05T08:27:29.706Z,5.15
2023-04-05T08:29:58.022Z,5.30
2023-04-05T08:32:26.402Z,5.46
2023-04-05T08:34:54.824Z,5.59
2023-04-05T08:37:23.157Z,5.70
2023-04-05T08:39:51.460Z,5.81
2023-04-05T08:42:31.986Z,5.97
2023-04-05T08:45:04.274Z,6.13
2023-04-05T08:47:36.785Z,6.25
2023-04-05T08:50:06.280Z,6.39
2023-04-05T08:52:38.143Z,6.48
2023-04-05T08:55:07.023Z,6.54
2023-04-05T08:57:39.399Z,6.63
2023-04-05T09:00:09.522Z,6.75
2023-04-05T09:02:38.993Z,6.88
2023-04-05T09:05:10.878Z,7.02
2023-04-05T09:07:40.836Z,7.15
2023-04-05T09:10:09.365Z,7.29
2023-04-05T09:12:38.642Z,7.43
2023-04-05T09:15:07.593Z,7.51
2023-04-05T09:17:39.263Z,7.67
2023-04-05T09:20:08.041Z,7.78
2023-04-05T09:22:47.535Z,7.82
2023-04-05T09:25:39.551Z,8.03
2023-04-05T09:28:13.318Z,8.24
2023-04-05T09:30:47.237Z,8.48
2023-04-05T09:33:25.620Z,8.77
2023-04-05T09:35:55.602Z,8.93
2023-04-05T09:38:44.659Z,9.01
2023-04-05T09:41:13.073Z,9.10
2023-04-05T09:43:42.682Z,9.25
2023-04-05T09:46:32.007Z,9.56
2023-04-05T09:49:02.472Z,10.06
2023-04-05T09:51:38.859Z,10.47
2023-04-05T09:54:11.323Z,10.62
2023-04-05T09:56:42.001Z,10.77
2023-04-05T09:59:12.864Z,10.74
2023-04-05T10:01:45.121Z,10.78
2023-04-05T10:04:14.382Z,11.24
2023-04-05T10:06:43.065Z,11.62
2023-04-05T10:09:16.571Z,11.80
2023-04-05T10:11:45.969Z,12.06
2023-04-05T10:14:14.837Z,12.45
2023-04-05T10:17:28.069Z,12.65
2023-04-05T10:20:18.466Z,12.68
2023-04-05T10:22:59.869Z,12.62
2023-04-05T10:25:31.146Z,12.42
2023-04-05T10:34:41.671Z,11.50
2023-04-05T10:37:37.400Z,11.08
2023-04-05T10:40:09.912Z,10.69
2023-04-05T10:42:46.629Z,10.39
2023-04-05T10:45:23.325Z,10.18
2023-04-05T10:48:21.637Z,10.00
2023-04-05T10:50:50.859Z,9.81
2023-04-05T10:53:22.151Z,9.65
2023-04-05T10:55:51.067Z,9.60
2023-04-05T10:58:20.663Z,9.81
2023-04-05T11:00:51.069Z,10.21
2023-04-05T11:03:44.949Z,10.72
2023-04-05T11:06:44.025Z,11.38
2023-04-05T11:09:20.317Z,11.81
2023-04-05T11:11:52.023Z,12.17
2023-04-05T11:14:36.023Z,12.61
2023-04-05T11:17:05.032Z,12.93
2023-04-05T11:19:47.901Z,13.16
2023-04-05T11:22:27.663Z,13.43
2023-04-05T11:25:02.028Z,13.72
2023-04-05T11:27:33.962Z,13.91
2023-04-05T11:30:05.487Z,14.21
2023-04-05T11:32:47.141Z,14.45
2023-04-05T11:35:22.965Z,14.32
2023-04-05T11:38:00.961Z,14.22
2023-04-05T11:40:41.036Z,14.17
2023-04-05T11:43:12.596Z,13.96
2023-04-05T11:45:44.554Z,13.82
2023-04-05T11:48:14.445Z,13.52
2023-04-05T11:50:43.020Z,13.23
2023-04-05T11:53:20.046Z,12.95
2023-04-05T11:55:51.795Z,12.73
2023-04-05T11:58:24.205Z,12.50
2023-04-05T12:01:01.379Z,12.18
2023-04-05T12:03:31.190Z,11.88
2023-04-05T12:06:03.622Z,11.53
2023-04-05T12:08:49.885Z,11.11
2023-04-05T12:11:27.235Z,10.64
2023-04-05T12:14:02.503Z,10.19
2023-04-05T12:16:30.985Z,9.72
2023-04-05T12:19:00.939Z,9.26
2023-04-05T12:21:29.452Z,8.82
2023-04-05T12:23:58.816Z,8.47
2023-04-05T12:26:28.682Z,8.12
2023-04-05T12:29:00.397Z,7.86
2023-04-05T12:31:46.947Z,7.74
2023-04-05T12:34:15.992Z,7.86
2023-04-05T12:36:46.714Z,8.30
2023-04-05T12:39:17.683Z,8.70
2023-04-05T12:42:18.948Z,9.29
2023-04-05T12:45:06.363Z,10.06
2023-04-05T12:47:48.624Z,10.41
2023-04-05T12:50:18.883Z,10.43
2023-04-05T12:52:56.350Z,10.42
2023-04-05T12:55:27.188Z,10.33
2023-04-05T12:58:04.894Z,10.16
2023-04-05T13:00:33.801Z,9.93
2023-04-05T13:03:02.208Z,9.72
2023-04-05T13:05:31.303Z,9.54
2023-04-05T13:08:00.356Z,9.40
2023-04-05T13:10:28.893Z,9.32
2023-04-05T13:12:57.457Z,9.16
2023-04-05T13:15:25.821Z,9.00
2023-04-05T13:17:55.157Z,8.84
2023-04-05T13:20:23.951Z,8.77
2023-04-05T13:22:52.531Z,8.98
2023-04-05T13:25:20.994Z,9.67
2023-04-05T13:27:50.085Z,10.53
2023-04-05T13:30:18.982Z,11.12
2023-04-05T13:32:47.440Z,11.35
2023-04-05T13:35:16.142Z,11.51
2023-04-05T13:37:44.595Z,11.93
2023-04-05T13:40:13.113Z,12.44
2023-04-05T13:42:41.438Z,12.51
2023-04-05T13:45:10.529Z,12.41
2023-04-05T13:47:38.892Z,12.17
2023-04-05T13:50:08.305Z,11.85
2023-04-05T13:52:37.798Z,11.54
2023-04-05T13:55:06.695Z,11.24
2023-04-05T13:57:35.058Z,10.89
2023-04-05T14:00:04.085Z,10.51
2023-04-05T14:02:32.949Z,10.11
2023-04-05T14:05:01.429Z,9.67
2023-04-05T14:07:30.046Z,9.15
2023-04-05T14:09:58.473Z,8.68
2023-04-05T14:12:26.923Z,8.26
2023-04-05T14:14:55.301Z,7.85
2023-04-05T14:17:23.654Z,7.54
2023-04-05T14:19:52.044Z,7.37
2023-04-05T14:22:21.615Z,7.25
2023-04-05T14:24:50.017Z,7.22
2023-04-05T14:27:18.475Z,7.24
2023-04-05T14:29:47.240Z,7.28
2023-04-05T14:32:15.923Z,7.34
2023-04-05T14:34:44.275Z,7.41
2023-04-05T14:37:12.613Z,7.48
2023-04-05T14:39:41.178Z,7.58
2023-04-05T14:42:09.689Z,7.74
2023-04-05T14:44:38.954Z,8.01
2023-04-05T14:47:07.312Z,8.39
2023-04-05T14:49:35.691Z,8.78
2023-04-05T14:52:04.348Z,9.05
2023-04-05T14:54:32.764Z,9.37
2023-04-05T14:57:01.093Z,9.74
2023-04-05T14:59:29.983Z,10.22
2023-04-05T15:01:58.623Z,10.57
2023-04-05T15:04:28.392Z,10.88
2023-04-05T15:06:56.788Z,11.66
2023-04-05T15:09:25.177Z,13.07
2023-04-05T15:11:55.414Z,13.98
2023-04-05T15:14:31.739Z,14.24
2023-04-05T15:17:00.863Z,14.79
2023-04-05T15:19:30.632Z,15.53
2023-04-05T15:21:59.069Z,16.55
2023-04-05T15:24:27.554Z,17.21
2023-04-05T15:27:02.014Z,18.21
2023-04-05T15:29:31.991Z,19.18
2023-04-05T15:32:02.964Z,20.12
2023-04-05T15:34:32.184Z,21.13
2023-04-05T15:37:00.513Z,22.14
2023-04-05T15:39:28.923Z,22.96
2023-04-05T15:41:57.921Z,23.56
2023-04-05T15:44:26.798Z,24.09
2023-04-05T15:46:55.258Z,24.75
2023-04-05T15:49:23.629Z,25.33
2023-04-05T15:51:52.102Z,25.79
2023-04-05T15:54:21.191Z,26.21
2023-04-05T15:56:49.760Z,26.56
2023-04-05T15:59:18.477Z,27.06
2023-04-05T16:01:47.238Z,27.53
2023-04-05T16:04:16.099Z,27.80
2023-04-05T16:06:44.545Z,28.03
2023-04-05T16:09:13.016Z,28.23
2023-04-05T16:11:41.496Z,28.31
2023-04-05T16:14:11.431Z,28.28
2023-04-05T16:16:50.503Z,28.31
2023-04-05T16:19:24.600Z,28.36
2023-04-05T16:21:53.503Z,28.38
2023-04-05T16:24:22.032Z,28.36
2023-04-05T16:26:50.426Z,27.93
2023-04-05T16:29:19.162Z,27.28
2023-04-05T16:31:47.825Z,26.02
2023-04-05T16:34:16.512Z,24.29
2023-04-05T16:36:44.964Z,22.83
2023-04-05T16:39:13.389Z,21.63
2023-04-05T16:41:41.910Z,20.44
2023-04-05T16:44:10.445Z,19.22
2023-04-05T16:46:40.118Z,18.24
2023-04-05T16:49:08.617Z,17.94
2023-04-05T16:51:37.308Z,18.21
2023-04-05T16:54:05.912Z,18.59
2023-04-05T16:56:34.404Z,18.84
2023-04-05T16:59:05.069Z,18.71
2023-04-05T17:01:35.560Z,18.19
2023-04-05T17:04:04.011Z,17.52
2023-04-05T17:06:32.608Z,16.66
2023-04-05T17:09:01.312Z,15.78
2023-04-05T17:11:30.038Z,14.92
2023-04-05T17:13:59.617Z,14.12
2023-04-05T17:16:28.369Z,13.38
2023-04-05T17:18:56.883Z,12.75
2023-04-05T17:21:26.047Z,12.17
2023-04-05T17:25:54.389Z,11.23
2023-04-05T17:28:22.829Z,10.64
2023-04-05T17:30:51.402Z,10.17
2023-04-05T17:33:19.749Z,9.74
2023-04-05T17:35:49.094Z,9.33
2023-04-05T17:38:17.474Z,8.90
2023-04-05T17:40:53.165Z,8.50
2023-04-05T17:43:21.619Z,8.13
2023-04-05T17:45:50.332Z,7.79
2023-04-05T17:48:19.205Z,7.45
2023-04-05T17:50:47.664Z,7.13
2023-04-05T17:53:16.699Z,6.83
2023-04-05T17:55:45.149Z,6.53
2023-04-05T17:58:13.688Z,6.26
2023-04-05T18:00:42.245Z,6.02
2023-04-05T18:03:12.962Z,5.78
2023-04-05T18:05:41.835Z,5.57
2023-04-05T18:08:10.186Z,5.41
2023-04-05T18:10:38.560Z,5.26
2023-04-05T18:13:06.941Z,5.13
2023-04-05T18:15:35.566Z,5.00
2023-04-05T18:18:04.303Z,4.86
2023-04-05T18:20:33.168Z,4.74
2023-04-05T18:23:01.508Z,4.61
2023-04-05T18:25:29.888Z,4.48
2023-04-05T18:27:58.304Z,4.33
2023-04-05T18:30:26.687Z,4.19
2023-04-05T18:32:55.151Z,4.07
2023-04-05T18:35:23.577Z,3.94
2023-04-05T18:37:52.026Z,3.82
2023-04-05T18:40:21.023Z,3.69
2023-04-05T18:42:49.479Z,3.56
2023-04-05T18:45:18.505Z,3.42
2023-04-05T18:47:46.884Z,3.28
2023-04-05T18:50:15.667Z,3.15
2023-04-05T18:52:44.137Z,3.04
2023-04-05T18:55:14.033Z,2.94
2023-04-05T18:57:42.467Z,2.82
2023-04-05T19:00:11.665Z,2.73
2023-04-05T19:02:41.117Z,2.61
2023-04-05T19:05:10.354Z,2.52
2023-04-05T19:07:38.791Z,2.44
2023-04-05T19:10:08.124Z,2.34
2023-04-05T19:12:36.550Z,2.27
2023-04-05T19:15:05.684Z,2.19
2023-04-05T19:17:34.211Z,2.10
2023-04-05T19:20:03.042Z,2.03
2023-04-05T19:22:31.435Z,1.94
2023-04-05T19:25:01.077Z,1.88
2023-04-05T19:27:34.391Z,1.82
2023-04-05T19:30:04.086Z,1.75
2023-04-05T19:32:32.455Z,1.68
2023-04-05T19:35:01.137Z,1.61
2023-04-05T19:37:30.733Z,1.55
2023-04-05T19:39:59.085Z,1.49
2023-04-05T19:42:27.624Z,1.40
2023-04-05T19:44:58.074Z,1.32
2023-04-05T19:47:26.983Z,1.26
2023-04-05T19:49:57.220Z,1.22
2023-04-05T19:52:47.996Z,1.17
2023-04-05T19:55:31.201Z,1.11
2023-04-05T19:58:01.892Z,1.06
2023-04-05T20:00:48.629Z,1.03
2023-04-05T20:03:38.509Z,1.00
2023-04-05T20:06:08.878Z,0.99
2023-04-05T20:08:39.772Z,0.97
2023-04-05T20:11:13.145Z,0.97
2023-04-05T20:13:57.260Z,0.96
2023-04-05T20:16:34.209Z,0.96
2023-04-05T20:19:07.044Z,0.97
2023-04-05T20:21:39.749Z,0.99
2023-04-05T20:24:12.926Z,1.02
2023-04-05T20:26:41.414Z,1.02
2023-04-05T20:29:10.193Z,1.02
2023-04-05T20:31:40.129Z,1.01
2023-04-05T20:34:19.674Z,1.01
2023-04-05T20:36:54.726Z,0.98
2023-04-05T20:39:23.942Z,0.98
2023-04-05T20:41:52.689Z,0.97
2023-04-05T20:44:21.536Z,0.97
2023-04-05T20:46:53.234Z,0.96
2023-04-05T20:49:24.339Z,0.97
2023-04-05T20:51:54.989Z,0.98
2023-04-05T20:54:24.302Z,0.99
2023-04-05T20:56:53.208Z,1.00
2023-04-05T20:59:21.703Z,1.00
2023-04-05T21:01:50.675Z,1.00
2023-04-05T21:04:19.086Z,0.99
2023-04-05T21:06:47.514Z,1.00
2023-04-05T21:09:15.978Z,1.01
2023-04-05T21:11:44.399Z,1.00
2023-04-05T21:14:12.924Z,1.00
2023-04-05T21:16:41.450Z,0.97
2023-04-05T21:19:10.001Z,0.93
2023-04-05T21:21:38.507Z,0.87
2023-04-05T21:24:06.947Z,0.81
2023-04-05T21:26:35.403Z,0.75
2023-04-05T21:29:03.720Z,0.68
2023-04-05T21:31:32.145Z,0.62
2023-04-05T21:34:00.613Z,0.57
2023-04-05T21:36:29.258Z,0.48
2023-04-05T21:38:57.603Z,0.39
2023-04-05T21:41:26.062Z,0.31
2023-04-05T21:43:54.496Z,0.26
2023-04-05T21:46:22.867Z,0.21
2023-04-05T21:48:51.232Z,0.17
2023-04-05T21:51:19.765Z,0.12
2023-04-05T21:53:48.196Z,0.08
2023-04-05T21:56:16.728Z,0.03
2023-04-05T21:58:45.153Z,-0.03
2023-04-05T22:01:13.790Z,-0.08
2023-04-05T22:03:42.161Z,-0.12
2023-04-05T22:06:10.768Z,-0.14
2023-04-05T22:08:39.179Z,-0.17
2023-04-05T22:11:08.241Z,-0.21
2023-04-05T22:13:36.538Z,-0.25
2023-04-05T22:16:05.195Z,-0.29
2023-04-05T22:18:33.627Z,-0.31
2023-04-05T22:21:02.004Z,-0.33
2023-04-05T22:23:30.615Z,-0.36
2023-04-05T22:25:58.996Z,-0.38
2023-04-05T22:28:27.433Z,-0.41
2023-04-05T22:30:55.817Z,-0.44
2023-04-05T22:33:24.089Z,-0.47
2023-04-05T22:35:52.522Z,-0.49
2023-04-05T22:38:21.310Z,-0.52
2023-04-05T22:40:49.727Z,-0.54
2023-04-05T22:43:18.207Z,-0.56
2023-04-05T22:45:49.776Z,-0.57
2023-04-05T22:48:18.427Z,-0.57
2023-04-05T22:50:46.794Z,-0.58
2023-04-05T22:53:15.427Z,-0.59
2023-04-05T22:55:43.833Z,-0.59
2023-04-05T22:58:12.506Z,-0.61
2023-04-05T23:00:40.845Z,-0.61
2023-04-05T23:03:09.949Z,-0.61
2023-04-05T23:05:38.616Z,-0.62
2023-04-05T23:08:06.953Z,-0.61
2023-04-05T23:10:35.510Z,-0.63
2023-04-05T23:13:03.858Z,-0.62
2023-04-05T23:15:32.414Z,-0.63
2023-04-05T23:18:00.820Z,-0.65
2023-04-05T23:20:29.242Z,-0.66
2023-04-05T23:22:58.164Z,-0.67
2023-04-05T23:25:26.545Z,-0.69
2023-04-05T23:27:55.022Z,-0.71
2023-04-05T23:30:23.412Z,-0.73
2023-04-05T23:32:51.904Z,-0.76
2023-04-05T23:35:21.295Z,-0.79
2023-04-05T23:37:49.843Z,-0.81
2023-04-05T23:40:18.192Z,-0.84
2023-04-05T23:42:46.586Z,-0.87
2023-04-05T23:45:15.618Z,-0.89
2023-04-05T23:47:43.994Z,-0.92
2023-04-05T23:50:12.348Z,-0.93
2023-04-05T23:52:40.836Z,-0.96
2023-04-05T23:55:09.653Z,-0.98
2023-04-05T23:57:38.008Z,-1.01
